sensor_id;sensor_type;location;lat;lon;timestamp;P1;durP1;ratioP1;P2;durP2;ratioP2
74963;SDS011;63521;51.900;4.748;2022-10-29T00:01:51;2.15;;;1.10;;
74963;SDS011;63521;51.900;4.748;2022-10-29T00:04:17;1.33;;;1.00;;
74963;SDS011;63521;51.900;4.748;2022-10-29T00:06:42;2.42;;;1.88;;
74963;SDS011;63521;51.900;4.748;2022-10-29T00:09:08;1.60;;;1.20;;
74963;SDS011;63521;51.900;4.748;2022-10-29T00:11:34;2.17;;;1.08;;
74963;SDS011;63521;51.900;4.748;2022-10-29T00:14:00;1.85;;;1.10;;
74963;SDS011;63521;51.900;4.748;2022-10-29T00:16:26;1.85;;;1.17;;
74963;SDS011;63521;51.900;4.748;2022-10-29T00:18:53;3.20;;;1.30;;
74963;SDS011;63521;51.900;4.748;2022-10-29T00:21:20;1.60;;;1.00;;
74963;SDS011;63521;51.900;4.748;2022-10-29T00:23:47;1.23;;;0.98;;
74963;SDS011;63521;51.900;4.748;2022-10-29T00:26:13;1.20;;;1.10;;
74963;SDS011;63521;51.900;4.748;2022-10-29T00:28:39;4.57;;;1.30;;
74963;SDS011;63521;51.900;4.748;2022-10-29T00:31:06;2.38;;;1.15;;
74963;SDS011;63521;51.900;4.748;2022-10-29T00:33:39;1.00;;;0.90;;
74963;SDS011;63521;51.900;4.748;2022-10-29T00:36:06;2.60;;;1.25;;
74963;SDS011;63521;51.900;4.748;2022-10-29T00:38:34;2.20;;;0.80;;
74963;SDS011;63521;51.900;4.748;2022-10-29T00:41:00;1.00;;;0.90;;
74963;SDS011;63521;51.900;4.748;2022-10-29T00:43:26;2.40;;;1.00;;
74963;SDS011;63521;51.900;4.748;2022-10-29T00:45:56;0.98;;;0.90;;
74963;SDS011;63521;51.900;4.748;2022-10-29T00:48:25;1.92;;;0.90;;
74963;SDS011;63521;51.900;4.748;2022-10-29T00:50:52;1.15;;;0.80;;
74963;SDS011;63521;51.900;4.748;2022-10-29T00:53:19;1.65;;;0.95;;
74963;SDS011;63521;51.900;4.748;2022-10-29T00:55:46;1.08;;;0.90;;
74963;SDS011;63521;51.900;4.748;2022-10-29T00:58:11;0.80;;;0.80;;
74963;SDS011;63521;51.900;4.748;2022-10-29T01:00:37;1.40;;;0.93;;
74963;SDS011;63521;51.900;4.748;2022-10-29T01:03:03;0.73;;;0.70;;
74963;SDS011;63521;51.900;4.748;2022-10-29T01:05:29;1.42;;;0.80;;
74963;SDS011;63521;51.900;4.748;2022-10-29T01:07:55;1.02;;;0.93;;
74963;SDS011;63521;51.900;4.748;2022-10-29T01:10:23;0.95;;;0.80;;
74963;SDS011;63521;51.900;4.748;2022-10-29T01:15:57;1.13;;;0.80;;
74963;SDS011;63521;51.900;4.748;2022-10-29T01:18:30;0.82;;;0.77;;
74963;SDS011;63521;51.900;4.748;2022-10-29T01:21:15;1.10;;;1.00;;
74963;SDS011;63521;51.900;4.748;2022-10-29T01:29:34;1.08;;;0.60;;
74963;SDS011;63521;51.900;4.748;2022-10-29T01:32:28;0.85;;;0.80;;
74963;SDS011;63521;51.900;4.748;2022-10-29T01:34:59;1.15;;;0.85;;
74963;SDS011;63521;51.900;4.748;2022-10-29T01:45:10;0.90;;;0.75;;
74963;SDS011;63521;51.900;4.748;2022-10-29T01:47:42;0.95;;;0.80;;
74963;SDS011;63521;51.900;4.748;2022-10-29T01:50:10;1.05;;;0.90;;
74963;SDS011;63521;51.900;4.748;2022-10-29T01:52:37;0.80;;;0.73;;
74963;SDS011;63521;51.900;4.748;2022-10-29T01:55:03;0.85;;;0.80;;
74963;SDS011;63521;51.900;4.748;2022-10-29T01:57:36;1.40;;;1.02;;
74963;SDS011;63521;51.900;4.748;2022-10-29T02:08:31;0.65;;;0.65;;
74963;SDS011;63521;51.900;4.748;2022-10-29T02:11:39;0.75;;;0.75;;
74963;SDS011;63521;51.900;4.748;2022-10-29T02:13:35;0.95;;;0.70;;
74963;SDS011;63521;51.900;4.748;2022-10-29T02:16:04;1.08;;;0.98;;
74963;SDS011;63521;51.900;4.748;2022-10-29T02:18:37;0.90;;;0.90;;
74963;SDS011;63521;51.900;4.748;2022-10-29T02:21:04;1.75;;;1.02;;
74963;SDS011;63521;51.900;4.748;2022-10-29T02:23:30;0.82;;;0.80;;
74963;SDS011;63521;51.900;4.748;2022-10-29T02:25:55;0.80;;;0.60;;
74963;SDS011;63521;51.900;4.748;2022-10-29T02:28:20;1.50;;;0.90;;
74963;SDS011;63521;51.900;4.748;2022-10-29T02:30:46;1.00;;;0.40;;
74963;SDS011;63521;51.900;4.748;2022-10-29T02:33:11;1.00;;;0.98;;
74963;SDS011;63521;51.900;4.748;2022-10-29T02:35:36;0.93;;;0.80;;
74963;SDS011;63521;51.900;4.748;2022-10-29T02:38:02;1.00;;;0.70;;
74963;SDS011;63521;51.900;4.748;2022-10-29T02:40:27;0.70;;;0.70;;
74963;SDS011;63521;51.900;4.748;2022-10-29T02:42:53;1.27;;;0.73;;
74963;SDS011;63521;51.900;4.748;2022-10-29T02:45:18;0.80;;;0.80;;
74963;SDS011;63521;51.900;4.748;2022-10-29T02:47:43;0.80;;;0.77;;
74963;SDS011;63521;51.900;4.748;2022-10-29T02:50:09;0.85;;;0.73;;
74963;SDS011;63521;51.900;4.748;2022-10-29T02:52:34;0.93;;;0.88;;
74963;SDS011;63521;51.900;4.748;2022-10-29T02:55:00;0.82;;;0.82;;
74963;SDS011;63521;51.900;4.748;2022-10-29T02:57:25;0.70;;;0.70;;
74963;SDS011;63521;51.900;4.748;2022-10-29T02:59:50;1.05;;;0.90;;
74963;SDS011;63521;51.900;4.748;2022-10-29T03:02:16;0.80;;;0.80;;
74963;SDS011;63521;51.900;4.748;2022-10-29T03:04:41;0.70;;;0.70;;
74963;SDS011;63521;51.900;4.748;2022-10-29T03:07:08;1.17;;;0.80;;
74963;SDS011;63521;51.900;4.748;2022-10-29T03:09:33;0.75;;;0.70;;
74963;SDS011;63521;51.900;4.748;2022-10-29T03:11:59;0.60;;;0.60;;
74963;SDS011;63521;51.900;4.748;2022-10-29T03:14:24;1.20;;;0.90;;
74963;SDS011;63521;51.900;4.748;2022-10-29T03:16:49;1.63;;;0.93;;
74963;SDS011;63521;51.900;4.748;2022-10-29T03:19:15;1.13;;;0.80;;
74963;SDS011;63521;51.900;4.748;2022-10-29T03:21:40;1.00;;;0.88;;
74963;SDS011;63521;51.900;4.748;2022-10-29T03:24:06;2.20;;;0.60;;
74963;SDS011;63521;51.900;4.748;2022-10-29T03:26:31;0.68;;;0.68;;
74963;SDS011;63521;51.900;4.748;2022-10-29T03:28:56;0.80;;;0.80;;
74963;SDS011;63521;51.900;4.748;2022-10-29T03:31:22;0.70;;;0.70;;
74963;SDS011;63521;51.900;4.748;2022-10-29T03:33:47;0.90;;;0.90;;
74963;SDS011;63521;51.900;4.748;2022-10-29T03:36:12;1.00;;;0.90;;
74963;SDS011;63521;51.900;4.748;2022-10-29T03:38:38;0.80;;;0.80;;
74963;SDS011;63521;51.900;4.748;2022-10-29T03:41:03;0.98;;;0.90;;
74963;SDS011;63521;51.900;4.748;2022-10-29T03:43:34;1.35;;;0.70;;
74963;SDS011;63521;51.900;4.748;2022-10-29T03:46:00;0.70;;;0.70;;
74963;SDS011;63521;51.900;4.748;2022-10-29T03:48:26;0.80;;;0.70;;
74963;SDS011;63521;51.900;4.748;2022-10-29T03:50:58;0.90;;;0.90;;
74963;SDS011;63521;51.900;4.748;2022-10-29T03:53:30;0.90;;;0.80;;
74963;SDS011;63521;51.900;4.748;2022-10-29T03:55:55;0.75;;;0.70;;
74963;SDS011;63521;51.900;4.748;2022-10-29T03:58:22;0.70;;;0.70;;
74963;SDS011;63521;51.900;4.748;2022-10-29T04:00:55;0.70;;;0.70;;
74963;SDS011;63521;51.900;4.748;2022-10-29T04:03:24;0.73;;;0.73;;
74963;SDS011;63521;51.900;4.748;2022-10-29T04:05:50;0.88;;;0.70;;
74963;SDS011;63521;51.900;4.748;2022-10-29T04:08:16;0.70;;;0.70;;
74963;SDS011;63521;51.900;4.748;2022-10-29T04:10:42;0.73;;;0.70;;
74963;SDS011;63521;51.900;4.748;2022-10-29T04:13:10;0.80;;;0.80;;
74963;SDS011;63521;51.900;4.748;2022-10-29T04:15:35;1.38;;;0.80;;
74963;SDS011;63521;51.900;4.748;2022-10-29T04:18:01;1.58;;;0.85;;
74963;SDS011;63521;51.900;4.748;2022-10-29T04:20:26;0.70;;;0.70;;
74963;SDS011;63521;51.900;4.748;2022-10-29T04:22:51;1.38;;;0.88;;
74963;SDS011;63521;51.900;4.748;2022-10-29T04:25:17;0.70;;;0.70;;
74963;SDS011;63521;51.900;4.748;2022-10-29T04:27:42;2.22;;;0.80;;
74963;SDS011;63521;51.900;4.748;2022-10-29T04:30:08;0.80;;;0.80;;
74963;SDS011;63521;51.900;4.748;2022-10-29T04:32:33;0.80;;;0.70;;
74963;SDS011;63521;51.900;4.748;2022-10-29T04:34:59;1.67;;;0.70;;
74963;SDS011;63521;51.900;4.748;2022-10-29T04:37:26;1.35;;;0.73;;
74963;SDS011;63521;51.900;4.748;2022-10-29T04:39:52;0.60;;;0.60;;
74963;SDS011;63521;51.900;4.748;2022-10-29T04:42:18;1.55;;;0.70;;
74963;SDS011;63521;51.900;4.748;2022-10-29T04:44:43;0.60;;;0.60;;
74963;SDS011;63521;51.900;4.748;2022-10-29T04:47:08;0.73;;;0.70;;
74963;SDS011;63521;51.900;4.748;2022-10-29T04:49:34;0.60;;;0.60;;
74963;SDS011;63521;51.900;4.748;2022-10-29T04:51:59;1.17;;;0.70;;
74963;SDS011;63521;51.900;4.748;2022-10-29T04:54:25;0.82;;;0.80;;
74963;SDS011;63521;51.900;4.748;2022-10-29T04:56:50;0.70;;;0.70;;
74963;SDS011;63521;51.900;4.748;2022-10-29T04:59:16;0.60;;;0.60;;
74963;SDS011;63521;51.900;4.748;2022-10-29T05:01:41;0.85;;;0.85;;
74963;SDS011;63521;51.900;4.748;2022-10-29T05:04:06;0.70;;;0.70;;
74963;SDS011;63521;51.900;4.748;2022-10-29T05:06:32;0.98;;;0.90;;
74963;SDS011;63521;51.900;4.748;2022-10-29T05:08:57;0.70;;;0.70;;
74963;SDS011;63521;51.900;4.748;2022-10-29T05:11:23;0.70;;;0.70;;
74963;SDS011;63521;51.900;4.748;2022-10-29T05:13:48;0.90;;;0.90;;
74963;SDS011;63521;51.900;4.748;2022-10-29T05:16:13;1.00;;;0.90;;
74963;SDS011;63521;51.900;4.748;2022-10-29T05:18:39;0.77;;;0.73;;
74963;SDS011;63521;51.900;4.748;2022-10-29T05:21:04;0.90;;;0.90;;
74963;SDS011;63521;51.900;4.748;2022-10-29T05:23:30;1.30;;;1.00;;
74963;SDS011;63521;51.900;4.748;2022-10-29T05:25:56;1.08;;;1.00;;
74963;SDS011;63521;51.900;4.748;2022-10-29T05:28:21;1.13;;;0.98;;
74963;SDS011;63521;51.900;4.748;2022-10-29T05:30:48;0.80;;;0.80;;
74963;SDS011;63521;51.900;4.748;2022-10-29T05:33:15;1.30;;;0.95;;
74963;SDS011;63521;51.900;4.748;2022-10-29T05:35:42;1.75;;;1.10;;
74963;SDS011;63521;51.900;4.748;2022-10-29T05:38:08;1.10;;;1.00;;
74963;SDS011;63521;51.900;4.748;2022-10-29T05:40:34;1.33;;;0.90;;
74963;SDS011;63521;51.900;4.748;2022-10-29T05:43:00;1.10;;;1.00;;
74963;SDS011;63521;51.900;4.748;2022-10-29T05:45:25;1.70;;;1.05;;
74963;SDS011;63521;51.900;4.748;2022-10-29T05:47:54;1.48;;;0.90;;
74963;SDS011;63521;51.900;4.748;2022-10-29T05:50:23;1.00;;;0.90;;
74963;SDS011;63521;51.900;4.748;2022-10-29T05:52:55;1.02;;;0.93;;
74963;SDS011;63521;51.900;4.748;2022-10-29T05:55:24;1.10;;;1.00;;
74963;SDS011;63521;51.900;4.748;2022-10-29T05:58:01;1.38;;;0.88;;
74963;SDS011;63521;51.900;4.748;2022-10-29T06:00:28;0.93;;;0.82;;
74963;SDS011;63521;51.900;4.748;2022-10-29T06:02:55;0.90;;;0.90;;
74963;SDS011;63521;51.900;4.748;2022-10-29T06:05:26;1.95;;;1.20;;
74963;SDS011;63521;51.900;4.748;2022-10-29T06:07:52;1.00;;;1.00;;
74963;SDS011;63521;51.900;4.748;2022-10-29T06:10:22;1.35;;;1.02;;
74963;SDS011;63521;51.900;4.748;2022-10-29T06:12:48;1.70;;;0.90;;
74963;SDS011;63521;51.900;4.748;2022-10-29T06:15:14;1.52;;;1.20;;
74963;SDS011;63521;51.900;4.748;2022-10-29T06:17:43;1.23;;;1.00;;
74963;SDS011;63521;51.900;4.748;2022-10-29T06:20:09;2.08;;;1.00;;
74963;SDS011;63521;51.900;4.748;2022-10-29T06:22:35;2.25;;;1.40;;
74963;SDS011;63521;51.900;4.748;2022-10-29T06:25:01;2.17;;;1.25;;
74963;SDS011;63521;51.900;4.748;2022-10-29T06:27:26;1.80;;;1.40;;
74963;SDS011;63521;51.900;4.748;2022-10-29T06:29:52;1.27;;;1.17;;
74963;SDS011;63521;51.900;4.748;2022-10-29T06:32:17;8.50;;;5.60;;
74963;SDS011;63521;51.900;4.748;2022-10-29T06:34:42;10.45;;;4.55;;
74963;SDS011;63521;51.900;4.748;2022-10-29T06:37:08;6.90;;;3.97;;
74963;SDS011;63521;51.900;4.748;2022-10-29T06:39:33;7.82;;;4.20;;
74963;SDS011;63521;51.900;4.748;2022-10-29T06:41:58;7.10;;;3.85;;
74963;SDS011;63521;51.900;4.748;2022-10-29T06:44:24;4.65;;;3.17;;
74963;SDS011;63521;51.900;4.748;2022-10-29T06:46:49;5.57;;;3.33;;
74963;SDS011;63521;51.900;4.748;2022-10-29T06:49:14;5.95;;;3.00;;
74963;SDS011;63521;51.900;4.748;2022-10-29T06:51:40;5.88;;;3.42;;
74963;SDS011;63521;51.900;4.748;2022-10-29T06:54:05;4.13;;;2.80;;
74963;SDS011;63521;51.900;4.748;2022-10-29T06:56:31;5.10;;;3.05;;
74963;SDS011;63521;51.900;4.748;2022-10-29T06:58:57;5.55;;;3.03;;
74963;SDS011;63521;51.900;4.748;2022-10-29T07:01:23;5.10;;;2.92;;
74963;SDS011;63521;51.900;4.748;2022-10-29T07:03:50;5.00;;;3.10;;
74963;SDS011;63521;51.900;4.748;2022-10-29T07:06:16;9.23;;;5.63;;
74963;SDS011;63521;51.900;4.748;2022-10-29T07:08:41;18.13;;;7.55;;
74963;SDS011;63521;51.900;4.748;2022-10-29T07:11:07;11.30;;;5.13;;
74963;SDS011;63521;51.900;4.748;2022-10-29T07:13:32;13.05;;;4.53;;
74963;SDS011;63521;51.900;4.748;2022-10-29T07:15:58;9.02;;;4.22;;
74963;SDS011;63521;51.900;4.748;2022-10-29T07:18:23;8.18;;;4.32;;
74963;SDS011;63521;51.900;4.748;2022-10-29T07:20:48;6.93;;;3.75;;
74963;SDS011;63521;51.900;4.748;2022-10-29T07:23:14;6.82;;;4.00;;
74963;SDS011;63521;51.900;4.748;2022-10-29T07:25:39;6.80;;;3.45;;
74963;SDS011;63521;51.900;4.748;2022-10-29T07:30:38;7.57;;;4.18;;
74963;SDS011;63521;51.900;4.748;2022-10-29T07:33:04;5.03;;;3.20;;
74963;SDS011;63521;51.900;4.748;2022-10-29T07:35:29;4.97;;;2.88;;
74963;SDS011;63521;51.900;4.748;2022-10-29T07:37:58;5.50;;;3.45;;
74963;SDS011;63521;51.900;4.748;2022-10-29T07:40:24;4.90;;;2.85;;
74963;SDS011;63521;51.900;4.748;2022-10-29T07:42:53;4.60;;;2.90;;
74963;SDS011;63521;51.900;4.748;2022-10-29T07:45:18;5.72;;;2.85;;
74963;SDS011;63521;51.900;4.748;2022-10-29T07:47:44;5.30;;;2.90;;
74963;SDS011;63521;51.900;4.748;2022-10-29T07:50:09;7.05;;;3.10;;
74963;SDS011;63521;51.900;4.748;2022-10-29T07:52:35;4.53;;;3.00;;
74963;SDS011;63521;51.900;4.748;2022-10-29T07:55:01;4.80;;;2.85;;
74963;SDS011;63521;51.900;4.748;2022-10-29T07:57:26;4.95;;;2.92;;
74963;SDS011;63521;51.900;4.748;2022-10-29T07:59:52;6.55;;;3.17;;
74963;SDS011;63521;51.900;4.748;2022-10-29T08:02:17;4.18;;;2.80;;
74963;SDS011;63521;51.900;4.748;2022-10-29T08:04:43;5.45;;;3.05;;
74963;SDS011;63521;51.900;4.748;2022-10-29T08:07:08;4.18;;;2.65;;
74963;SDS011;63521;51.900;4.748;2022-10-29T08:09:34;4.28;;;2.72;;
74963;SDS011;63521;51.900;4.748;2022-10-29T08:11:59;4.00;;;2.78;;
74963;SDS011;63521;51.900;4.748;2022-10-29T08:14:24;3.92;;;2.40;;
74963;SDS011;63521;51.900;4.748;2022-10-29T08:16:51;5.22;;;2.80;;
74963;SDS011;63521;51.900;4.748;2022-10-29T08:19:18;5.95;;;2.90;;
74963;SDS011;63521;51.900;4.748;2022-10-29T08:21:43;7.05;;;3.35;;
74963;SDS011;63521;51.900;4.748;2022-10-29T08:24:09;4.03;;;2.40;;
74963;SDS011;63521;51.900;4.748;2022-10-29T08:26:34;4.20;;;2.38;;
74963;SDS011;63521;51.900;4.748;2022-10-29T08:28:59;4.30;;;2.50;;
74963;SDS011;63521;51.900;4.748;2022-10-29T08:31:25;3.83;;;2.70;;
74963;SDS011;63521;51.900;4.748;2022-10-29T08:33:50;4.15;;;2.50;;
74963;SDS011;63521;51.900;4.748;2022-10-29T08:36:15;8.27;;;2.83;;
74963;SDS011;63521;51.900;4.748;2022-10-29T08:38:41;5.18;;;2.80;;
74963;SDS011;63521;51.900;4.748;2022-10-29T08:43:59;3.65;;;2.55;;
74963;SDS011;63521;51.900;4.748;2022-10-29T08:47:17;4.05;;;2.20;;
74963;SDS011;63521;51.900;4.748;2022-10-29T08:52:26;4.18;;;2.60;;
74963;SDS011;63521;51.900;4.748;2022-10-29T08:54:59;4.65;;;2.60;;
74963;SDS011;63521;51.900;4.748;2022-10-29T08:57:30;5.22;;;2.72;;
74963;SDS011;63521;51.900;4.748;2022-10-29T09:00:02;3.55;;;2.53;;
74963;SDS011;63521;51.900;4.748;2022-10-29T09:02:30;4.10;;;2.85;;
74963;SDS011;63521;51.900;4.748;2022-10-29T09:04:55;5.90;;;2.60;;
74963;SDS011;63521;51.900;4.748;2022-10-29T09:07:36;4.15;;;2.28;;
74963;SDS011;63521;51.900;4.748;2022-10-29T09:10:31;4.40;;;2.83;;
74963;SDS011;63521;51.900;4.748;2022-10-29T09:13:16;5.93;;;2.80;;
74963;SDS011;63521;51.900;4.748;2022-10-29T09:21:31;5.20;;;2.35;;
74963;SDS011;63521;51.900;4.748;2022-10-29T09:26:36;4.60;;;2.80;;
74963;SDS011;63521;51.900;4.748;2022-10-29T09:32:21;5.40;;;2.50;;
74963;SDS011;63521;51.900;4.748;2022-10-29T09:34:54;4.35;;;2.60;;
74963;SDS011;63521;51.900;4.748;2022-10-29T09:39:53;2.88;;;2.40;;
74963;SDS011;63521;51.900;4.748;2022-10-29T09:42:22;3.55;;;2.25;;
74963;SDS011;63521;51.900;4.748;2022-10-29T09:44:55;3.83;;;2.25;;
74963;SDS011;63521;51.900;4.748;2022-10-29T09:50:28;3.20;;;2.40;;
74963;SDS011;63521;51.900;4.748;2022-10-29T09:52:57;3.80;;;2.30;;
74963;SDS011;63521;51.900;4.748;2022-10-29T09:55:24;4.60;;;2.30;;
74963;SDS011;63521;51.900;4.748;2022-10-29T09:57:51;3.70;;;2.67;;
74963;SDS011;63521;51.900;4.748;2022-10-29T10:02:49;5.30;;;2.60;;
74963;SDS011;63521;51.900;4.748;2022-10-29T10:05:22;3.92;;;2.35;;
74963;SDS011;63521;51.900;4.748;2022-10-29T10:08:13;3.15;;;2.17;;
74963;SDS011;63521;51.900;4.748;2022-10-29T10:10:51;4.13;;;2.90;;
74963;SDS011;63521;51.900;4.748;2022-10-29T10:13:21;5.88;;;2.80;;
74963;SDS011;63521;51.900;4.748;2022-10-29T10:16:01;4.60;;;2.45;;
74963;SDS011;63521;51.900;4.748;2022-10-29T10:21:06;4.80;;;2.55;;
74963;SDS011;63521;51.900;4.748;2022-10-29T10:23:41;4.38;;;2.45;;
74963;SDS011;63521;51.900;4.748;2022-10-29T10:34:39;5.35;;;2.65;;
74963;SDS011;63521;51.900;4.748;2022-10-29T10:39:42;3.78;;;2.78;;
74963;SDS011;63521;51.900;4.748;2022-10-29T10:45:25;4.13;;;2.67;;
74963;SDS011;63521;51.900;4.748;2022-10-29T10:47:52;3.83;;;2.72;;
74963;SDS011;63521;51.900;4.748;2022-10-29T10:52:57;4.75;;;2.80;;
74963;SDS011;63521;51.900;4.748;2022-10-29T10:55:27;4.65;;;2.90;;
74963;SDS011;63521;51.900;4.748;2022-10-29T11:01:01;5.40;;;3.13;;
74963;SDS011;63521;51.900;4.748;2022-10-29T11:03:31;6.05;;;2.67;;
74963;SDS011;63521;51.900;4.748;2022-10-29T11:08:35;5.18;;;3.05;;
74963;SDS011;63521;51.900;4.748;2022-10-29T11:11:09;3.55;;;2.90;;
74963;SDS011;63521;51.900;4.748;2022-10-29T11:13:38;4.93;;;2.83;;
74963;SDS011;63521;51.900;4.748;2022-10-29T11:22:20;4.18;;;2.88;;
74963;SDS011;63521;51.900;4.748;2022-10-29T11:24:57;4.00;;;2.80;;
74963;SDS011;63521;51.900;4.748;2022-10-29T11:30:16;3.30;;;2.47;;
74963;SDS011;63521;51.900;4.748;2022-10-29T11:35:23;3.55;;;2.50;;
74963;SDS011;63521;51.900;4.748;2022-10-29T11:37:59;4.88;;;2.72;;
74963;SDS011;63521;51.900;4.748;2022-10-29T11:40:40;3.47;;;2.55;;
74963;SDS011;63521;51.900;4.748;2022-10-29T11:43:09;3.42;;;2.50;;
74963;SDS011;63521;51.900;4.748;2022-10-29T11:45:43;4.65;;;2.75;;
74963;SDS011;63521;51.900;4.748;2022-10-29T11:54:01;4.05;;;2.33;;
74963;SDS011;63521;51.900;4.748;2022-10-29T12:04:57;5.25;;;2.42;;
74963;SDS011;63521;51.900;4.748;2022-10-29T12:07:30;5.28;;;2.65;;
74963;SDS011;63521;51.900;4.748;2022-10-29T12:11:06;5.13;;;2.65;;
74963;SDS011;63521;51.900;4.748;2022-10-29T12:15:46;5.45;;;3.80;;
74963;SDS011;63521;51.900;4.748;2022-10-29T12:21:26;4.60;;;2.60;;
74963;SDS011;63521;51.900;4.748;2022-10-29T12:26:54;3.42;;;2.38;;
74963;SDS011;63521;51.900;4.748;2022-10-29T12:38:11;3.67;;;2.25;;
74963;SDS011;63521;51.900;4.748;2022-10-29T12:40:51;4.88;;;2.50;;
74963;SDS011;63521;51.900;4.748;2022-10-29T12:43:24;3.70;;;2.70;;
74963;SDS011;63521;51.900;4.748;2022-10-29T12:48:37;5.05;;;2.55;;
74963;SDS011;63521;51.900;4.748;2022-10-29T12:51:16;4.07;;;2.45;;
74963;SDS011;63521;51.900;4.748;2022-10-29T12:56:30;3.92;;;2.90;;
74963;SDS011;63521;51.900;4.748;2022-10-29T12:58:56;3.75;;;2.65;;
74963;SDS011;63521;51.900;4.748;2022-10-29T13:09:21;4.68;;;2.42;;
74963;SDS011;63521;51.900;4.748;2022-10-29T13:15:39;4.10;;;2.47;;
74963;SDS011;63521;51.900;4.748;2022-10-29T13:20:37;5.07;;;2.80;;
74963;SDS011;63521;51.900;4.748;2022-10-29T13:25:54;4.57;;;2.53;;
74963;SDS011;63521;51.900;4.748;2022-10-29T13:30:49;4.57;;;2.40;;
74963;SDS011;63521;51.900;4.748;2022-10-29T13:35:56;5.20;;;2.58;;
74963;SDS011;63521;51.900;4.748;2022-10-29T13:41:07;3.80;;;2.72;;
74963;SDS011;63521;51.900;4.748;2022-10-29T13:43:36;3.70;;;2.45;;
74963;SDS011;63521;51.900;4.748;2022-10-29T13:46:13;3.75;;;2.65;;
74963;SDS011;63521;51.900;4.748;2022-10-29T13:48:42;4.82;;;2.63;;
74963;SDS011;63521;51.900;4.748;2022-10-29T13:51:09;4.28;;;2.80;;
74963;SDS011;63521;51.900;4.748;2022-10-29T13:53:39;4.65;;;2.60;;
74963;SDS011;63521;51.900;4.748;2022-10-29T13:56:08;4.47;;;2.50;;
74963;SDS011;63521;51.900;4.748;2022-10-29T13:58:35;4.60;;;2.55;;
74963;SDS011;63521;51.900;4.748;2022-10-29T14:01:05;4.85;;;2.92;;
74963;SDS011;63521;51.900;4.748;2022-10-29T14:03:34;5.22;;;2.85;;
74963;SDS011;63521;51.900;4.748;2022-10-29T14:06:08;3.63;;;2.55;;
74963;SDS011;63521;51.900;4.748;2022-10-29T14:08:45;4.25;;;2.90;;
74963;SDS011;63521;51.900;4.748;2022-10-29T14:11:19;3.60;;;2.60;;
74963;SDS011;63521;51.900;4.748;2022-10-29T14:13:49;3.60;;;2.40;;
74963;SDS011;63521;51.900;4.748;2022-10-29T14:16:16;3.90;;;2.72;;
74963;SDS011;63521;51.900;4.748;2022-10-29T14:18:48;4.47;;;2.78;;
74963;SDS011;63521;51.900;4.748;2022-10-29T14:21:27;4.03;;;2.65;;
74963;SDS011;63521;51.900;4.748;2022-10-29T14:23:58;4.25;;;2.50;;
74963;SDS011;63521;51.900;4.748;2022-10-29T14:26:28;5.32;;;2.72;;
74963;SDS011;63521;51.900;4.748;2022-10-29T14:28:55;3.95;;;2.83;;
74963;SDS011;63521;51.900;4.748;2022-10-29T14:31:38;4.63;;;2.50;;
74963;SDS011;63521;51.900;4.748;2022-10-29T14:34:03;3.35;;;2.58;;
74963;SDS011;63521;51.900;4.748;2022-10-29T14:36:36;4.15;;;3.17;;
74963;SDS011;63521;51.900;4.748;2022-10-29T14:41:52;4.78;;;2.63;;
74963;SDS011;63521;51.900;4.748;2022-10-29T14:44:18;3.95;;;2.58;;
74963;SDS011;63521;51.900;4.748;2022-10-29T14:46:51;3.90;;;2.88;;
74963;SDS011;63521;51.900;4.748;2022-10-29T14:49:32;3.05;;;2.55;;
74963;SDS011;63521;51.900;4.748;2022-10-29T14:52:03;4.75;;;2.60;;
74963;SDS011;63521;51.900;4.748;2022-10-29T14:54:33;3.22;;;2.50;;
74963;SDS011;63521;51.900;4.748;2022-10-29T14:57:01;3.03;;;2.10;;
74963;SDS011;63521;51.900;4.748;2022-10-29T14:59:29;5.13;;;3.55;;
74963;SDS011;63521;51.900;4.748;2022-10-29T15:01:56;2.85;;;2.53;;
74963;SDS011;63521;51.900;4.748;2022-10-29T15:04:24;3.97;;;2.45;;
74963;SDS011;63521;51.900;4.748;2022-10-29T15:10:01;5.95;;;2.58;;
74963;SDS011;63521;51.900;4.748;2022-10-29T15:12:34;3.40;;;2.55;;
74963;SDS011;63521;51.900;4.748;2022-10-29T15:15:20;3.85;;;3.00;;
74963;SDS011;63521;51.900;4.748;2022-10-29T15:17:48;4.65;;;2.60;;
74963;SDS011;63521;51.900;4.748;2022-10-29T15:20:20;4.28;;;2.83;;
74963;SDS011;63521;51.900;4.748;2022-10-29T15:22:50;6.95;;;2.95;;
74963;SDS011;63521;51.900;4.748;2022-10-29T15:25:20;5.65;;;2.63;;
74963;SDS011;63521;51.900;4.748;2022-10-29T15:27:48;3.58;;;2.53;;
74963;SDS011;63521;51.900;4.748;2022-10-29T15:30:20;5.40;;;2.75;;
74963;SDS011;63521;51.900;4.748;2022-10-29T15:32:47;5.13;;;2.45;;
74963;SDS011;63521;51.900;4.748;2022-10-29T15:35:17;3.65;;;2.20;;
74963;SDS011;63521;51.900;4.748;2022-10-29T15:37:43;3.67;;;2.30;;
74963;SDS011;63521;51.900;4.748;2022-10-29T15:40:14;6.20;;;3.03;;
74963;SDS011;63521;51.900;4.748;2022-10-29T15:42:41;5.47;;;2.35;;
74963;SDS011;63521;51.900;4.748;2022-10-29T15:47:36;3.28;;;2.67;;
74963;SDS011;63521;51.900;4.748;2022-10-29T15:50:03;2.95;;;2.40;;
74963;SDS011;63521;51.900;4.748;2022-10-29T15:52:30;3.95;;;2.75;;
74963;SDS011;63521;51.900;4.748;2022-10-29T15:54:58;3.75;;;2.40;;
74963;SDS011;63521;51.900;4.748;2022-10-29T15:57:24;3.50;;;2.80;;
74963;SDS011;63521;51.900;4.748;2022-10-29T15:59:49;5.03;;;2.45;;
74963;SDS011;63521;51.900;4.748;2022-10-29T16:02:19;4.22;;;2.55;;
74963;SDS011;63521;51.900;4.748;2022-10-29T16:04:44;3.78;;;2.58;;
74963;SDS011;63521;51.900;4.748;2022-10-29T16:07:13;4.68;;;2.20;;
74963;SDS011;63521;51.900;4.748;2022-10-29T16:09:44;3.17;;;2.60;;
74963;SDS011;63521;51.900;4.748;2022-10-29T16:12:11;10.60;;;4.03;;
74963;SDS011;63521;51.900;4.748;2022-10-29T16:14:36;8.52;;;4.15;;
74963;SDS011;63521;51.900;4.748;2022-10-29T16:17:02;8.63;;;4.63;;
74963;SDS011;63521;51.900;4.748;2022-10-29T16:19:27;9.98;;;4.43;;
74963;SDS011;63521;51.900;4.748;2022-10-29T16:21:53;7.82;;;4.30;;
74963;SDS011;63521;51.900;4.748;2022-10-29T16:24:18;7.93;;;4.53;;
74963;SDS011;63521;51.900;4.748;2022-10-29T16:26:43;9.20;;;4.00;;
74963;SDS011;63521;51.900;4.748;2022-10-29T16:29:09;7.30;;;3.75;;
74963;SDS011;63521;51.900;4.748;2022-10-29T16:31:34;6.47;;;3.33;;
74963;SDS011;63521;51.900;4.748;2022-10-29T16:34:00;7.68;;;3.60;;
74963;SDS011;63521;51.900;4.748;2022-10-29T16:36:28;9.25;;;3.80;;
74963;SDS011;63521;51.900;4.748;2022-10-29T16:38:53;7.05;;;3.83;;
74963;SDS011;63521;51.900;4.748;2022-10-29T16:41:18;5.22;;;3.00;;
74963;SDS011;63521;51.900;4.748;2022-10-29T16:43:44;4.55;;;3.33;;
74963;SDS011;63521;51.900;4.748;2022-10-29T16:46:10;4.82;;;3.42;;
74963;SDS011;63521;51.900;4.748;2022-10-29T16:48:36;7.07;;;3.80;;
74963;SDS011;63521;51.900;4.748;2022-10-29T16:51:02;4.47;;;3.17;;
74963;SDS011;63521;51.900;4.748;2022-10-29T16:53:28;5.18;;;3.13;;
74963;SDS011;63521;51.900;4.748;2022-10-29T16:55:53;8.25;;;3.47;;
74963;SDS011;63521;51.900;4.748;2022-10-29T16:58:19;9.68;;;3.25;;
74963;SDS011;63521;51.900;4.748;2022-10-29T17:00:44;5.82;;;3.58;;
74963;SDS011;63521;51.900;4.748;2022-10-29T17:03:11;5.60;;;3.00;;
74963;SDS011;63521;51.900;4.748;2022-10-29T17:05:37;5.78;;;3.10;;
74963;SDS011;63521;51.900;4.748;2022-10-29T17:08:04;6.05;;;3.40;;
74963;SDS011;63521;51.900;4.748;2022-10-29T17:10:30;5.03;;;3.28;;
74963;SDS011;63521;51.900;4.748;2022-10-29T17:12:56;7.78;;;3.67;;
74963;SDS011;63521;51.900;4.748;2022-10-29T17:15:21;7.05;;;3.30;;
74963;SDS011;63521;51.900;4.748;2022-10-29T17:17:47;7.55;;;3.10;;
74963;SDS011;63521;51.900;4.748;2022-10-29T17:20:12;6.85;;;2.67;;
74963;SDS011;63521;51.900;4.748;2022-10-29T17:22:38;5.05;;;3.25;;
74963;SDS011;63521;51.900;4.748;2022-10-29T17:25:03;6.05;;;3.35;;
74963;SDS011;63521;51.900;4.748;2022-10-29T17:27:29;5.38;;;3.70;;
74963;SDS011;63521;51.900;4.748;2022-10-29T17:29:54;5.15;;;3.78;;
74963;SDS011;63521;51.900;4.748;2022-10-29T17:32:20;5.43;;;3.20;;
74963;SDS011;63521;51.900;4.748;2022-10-29T17:34:45;5.78;;;3.30;;